createdAt,value
2023-03-02T00:01:53.949Z,21.17
2023-03-02T00:04:22.869Z,18.42
2023-03-02T00:06:51.989Z,21.38
2023-03-02T00:09:19.282Z,20.40
2023-03-02T00:11:46.234Z,20.50
2023-03-02T00:14:13.061Z,21.80
2023-03-02T00:16:40.363Z,20.60
2023-03-02T00:19:07.398Z,21.15
2023-03-02T00:21:34.396Z,22.15
2023-03-02T00:24:01.331Z,22.70
2023-03-02T00:26:28.153Z,23.05
2023-03-02T00:28:55.718Z,22.33
2023-03-02T00:31:22.633Z,23.30
2023-03-02T00:33:51.167Z,24.77
2023-03-02T00:36:20.624Z,22.77
2023-03-02T00:38:47.993Z,24.92
2023-03-02T00:41:15.984Z,25.58
2023-03-02T00:43:43.030Z,25.20
2023-03-02T00:46:15.391Z,24.75
2023-03-02T00:48:42.431Z,25.77
2023-03-02T00:51:10.128Z,26.77
2023-03-02T00:53:37.708Z,28.02
2023-03-02T00:56:05.616Z,27.02
2023-03-02T00:58:35.916Z,25.50
2023-03-02T01:01:09.939Z,26.35
2023-03-02T01:03:39.644Z,26.88
2023-03-02T01:06:15.568Z,27.05
2023-03-02T01:08:42.539Z,26.67
2023-03-02T01:11:17.830Z,27.45
2023-03-02T01:13:45.705Z,29.00
2023-03-02T01:16:13.122Z,28.65
2023-03-02T01:18:40.395Z,29.15
2023-03-02T01:21:11.225Z,27.60
2023-03-02T01:23:38.114Z,28.10
2023-03-02T01:26:05.058Z,28.45
2023-03-02T01:28:32.637Z,30.30
2023-03-02T01:31:01.365Z,28.98
2023-03-02T01:33:28.517Z,29.92
2023-03-02T01:35:55.526Z,27.98
2023-03-02T01:38:22.645Z,28.20
2023-03-02T01:40:49.515Z,28.40
2023-03-02T01:43:17.122Z,29.10
2023-03-02T01:46:16.271Z,29.77
2023-03-02T01:48:50.780Z,28.92
2023-03-02T01:51:27.844Z,28.17
2023-03-02T01:54:01.810Z,30.13
2023-03-02T01:56:36.023Z,29.55
2023-03-02T01:59:09.665Z,29.88
2023-03-02T02:01:39.661Z,28.80
2023-03-02T02:04:07.647Z,30.52
2023-03-02T02:06:58.342Z,30.20
2023-03-02T02:09:26.734Z,29.45
2023-03-02T02:11:54.519Z,29.33
2023-03-02T02:14:22.136Z,31.92
2023-03-02T02:16:49.371Z,30.27
2023-03-02T02:19:47.225Z,28.75
2023-03-02T02:22:17.461Z,29.08
2023-03-02T02:24:48.080Z,29.60
2023-03-02T02:27:15.515Z,29.40
2023-03-02T02:29:49.656Z,28.58
2023-03-02T02:32:19.987Z,28.52
2023-03-02T02:34:56.822Z,30.08
2023-03-02T02:37:32.035Z,29.30
2023-03-02T02:40:01.774Z,27.95
2023-03-02T02:42:33.040Z,30.63
2023-03-02T02:45:03.338Z,27.95
2023-03-02T02:47:30.371Z,28.45
2023-03-02T02:49:58.245Z,29.20
2023-03-02T02:52:28.507Z,29.65
2023-03-02T02:54:57.761Z,27.75
2023-03-02T02:57:28.553Z,27.02
2023-03-02T03:00:00.650Z,27.92
2023-03-02T03:02:34.807Z,27.52
2023-03-02T03:05:04.598Z,27.10
2023-03-02T03:07:34.934Z,28.83
2023-03-02T03:10:12.992Z,28.75
2023-03-02T03:12:40.529Z,28.83
2023-03-02T03:15:08.731Z,29.42
2023-03-02T03:17:35.720Z,26.35
2023-03-02T03:20:08.771Z,28.05
2023-03-02T03:22:38.971Z,27.98
2023-03-02T03:25:08.585Z,28.20
2023-03-02T03:27:35.794Z,27.27
2023-03-02T03:30:04.461Z,28.13
2023-03-02T03:32:35.471Z,26.08
2023-03-02T03:35:08.473Z,27.48
2023-03-02T03:37:36.487Z,25.77
2023-03-02T03:40:03.850Z,26.45
2023-03-02T03:42:32.356Z,26.95
2023-03-02T03:45:01.164Z,26.13
2023-03-02T03:47:28.343Z,25.88
2023-03-02T03:49:55.428Z,25.27
2023-03-02T03:52:30.747Z,25.75
2023-03-02T03:55:06.298Z,25.80
2023-03-02T03:57:33.549Z,26.17
2023-03-02T04:00:00.918Z,26.73
2023-03-02T04:02:27.935Z,27.45
2023-03-02T04:04:55.018Z,26.52
2023-03-02T04:07:22.429Z,26.05
2023-03-02T04:09:49.435Z,26.25
2023-03-02T04:12:16.611Z,27.27
2023-03-02T04:14:50.488Z,26.08
2023-03-02T04:17:17.426Z,25.45
2023-03-02T04:19:46.874Z,27.10
2023-03-02T04:22:15.214Z,26.75
2023-03-02T04:24:43.608Z,25.17
2023-03-02T04:27:11.276Z,25.20
2023-03-02T04:29:38.416Z,25.65
2023-03-02T04:32:07.550Z,23.83
2023-03-02T04:34:36.713Z,24.52
2023-03-02T04:37:04.233Z,24.65
2023-03-02T04:39:31.255Z,25.40
2023-03-02T04:41:58.100Z,24.67
2023-03-02T04:44:25.002Z,24.55
2023-03-02T04:46:52.071Z,23.30
2023-03-02T04:49:20.034Z,23.00
2023-03-02T04:51:49.215Z,25.05
2023-03-02T04:54:19.719Z,23.48
2023-03-02T04:56:48.582Z,24.98
2023-03-02T04:59:26.976Z,22.55
2023-03-02T05:01:55.950Z,22.90
2023-03-02T05:04:23.252Z,24.73
2023-03-02T05:06:50.235Z,24.58
2023-03-02T05:09:17.262Z,24.60
2023-03-02T05:11:44.223Z,24.05
2023-03-02T05:14:12.530Z,23.08
2023-03-02T05:16:41.532Z,25.60
2023-03-02T05:19:10.494Z,23.52
2023-03-02T05:21:37.328Z,23.05
2023-03-02T05:24:05.001Z,24.58
2023-03-02T05:26:32.646Z,23.52
2023-03-02T05:28:59.729Z,25.02
2023-03-02T05:31:47.651Z,24.90
2023-03-02T05:34:16.464Z,24.58
2023-03-02T05:36:46.428Z,23.92
2023-03-02T05:39:13.762Z,23.95
2023-03-02T05:41:40.887Z,23.75
2023-03-02T05:44:10.275Z,24.98
2023-03-02T05:46:37.636Z,23.95
2023-03-02T05:49:04.531Z,22.95
2023-03-02T05:51:31.385Z,24.80
2023-03-02T05:53:58.247Z,23.55
2023-03-02T05:56:25.775Z,24.50
2023-03-02T05:58:52.720Z,24.95
2023-03-02T06:01:19.646Z,22.88
2023-03-02T06:03:46.461Z,24.45
2023-03-02T06:06:16.064Z,23.13
2023-03-02T06:08:43.977Z,24.52
2023-03-02T06:11:11.876Z,24.17
2023-03-02T06:13:39.830Z,23.42
2023-03-02T06:16:07.395Z,24.40
2023-03-02T06:18:34.787Z,24.83
2023-03-02T06:21:01.804Z,24.98
2023-03-02T06:23:29.073Z,26.27
2023-03-02T06:25:56.005Z,25.30
2023-03-02T06:28:22.931Z,27.42
2023-03-02T06:30:50.581Z,26.77
2023-03-02T06:33:19.195Z,26.25
2023-03-02T06:35:46.551Z,25.02
2023-03-02T06:38:13.644Z,25.08
2023-03-02T06:40:40.492Z,24.67
2023-03-02T06:43:07.376Z,25.67
2023-03-02T06:45:34.369Z,25.50
2023-03-02T06:48:01.883Z,25.77
2023-03-02T06:50:28.956Z,25.90
2023-03-02T06:52:56.460Z,24.60
2023-03-02T06:55:23.872Z,25.58
2023-03-02T06:57:51.136Z,25.52
2023-03-02T07:00:25.829Z,24.80
2023-03-02T07:02:53.807Z,25.42
2023-03-02T07:05:21.020Z,25.90
2023-03-02T07:07:48.033Z,25.30
2023-03-02T07:10:15.022Z,24.75
2023-03-02T07:12:42.460Z,23.77
2023-03-02T07:15:12.203Z,24.77
2023-03-02T07:17:40.005Z,25.98
2023-03-02T07:20:07.522Z,24.70
2023-03-02T07:22:34.402Z,24.33
2023-03-02T07:25:01.270Z,26.80
2023-03-02T07:27:28.376Z,24.02
2023-03-02T07:29:55.286Z,23.67
2023-03-02T07:32:22.314Z,25.05
2023-03-02T07:34:49.321Z,25.45
2023-03-02T07:37:16.228Z,22.92
2023-03-02T07:39:43.192Z,23.75
2023-03-02T07:42:12.152Z,24.13
2023-03-02T07:44:42.070Z,23.73
2023-03-02T07:47:09.087Z,24.65
2023-03-02T07:49:36.064Z,23.60
2023-03-02T07:52:03.604Z,24.42
2023-03-02T07:54:30.672Z,22.95
2023-03-02T07:56:58.377Z,23.25
2023-03-02T07:59:25.785Z,22.73
2023-03-02T08:01:52.797Z,22.77
2023-03-02T08:04:19.705Z,23.23
2023-03-02T08:06:46.741Z,22.63
2023-03-02T08:09:16.434Z,23.40
2023-03-02T08:11:44.947Z,21.67
2023-03-02T08:14:11.846Z,22.45
2023-03-02T08:16:39.660Z,21.90
2023-03-02T08:19:07.249Z,22.73
2023-03-02T08:21:34.445Z,21.40
2023-03-02T08:24:01.671Z,21.17
2023-03-02T08:26:28.632Z,21.33
2023-03-02T08:28:55.605Z,21.38
2023-03-02T08:31:22.573Z,22.13
2023-03-02T08:33:49.565Z,21.23
2023-03-02T08:36:18.483Z,20.20
2023-03-02T08:38:46.612Z,20.63
2023-03-02T08:41:17.234Z,20.75
2023-03-02T08:43:44.420Z,19.83
2023-03-02T08:46:13.066Z,21.08
2023-03-02T08:48:40.329Z,19.52
2023-03-02T08:51:13.437Z,21.05
2023-03-02T08:53:42.825Z,21.13
2023-03-02T08:56:20.180Z,19.98
2023-03-02T08:58:51.204Z,19.35
2023-03-02T09:01:21.620Z,19.38
2023-03-02T09:03:48.704Z,20.80
2023-03-02T09:06:16.101Z,19.58
2023-03-02T09:08:43.403Z,19.77
2023-03-02T09:11:10.746Z,19.50
2023-03-02T09:13:38.092Z,19.00
2023-03-02T09:16:05.388Z,18.58
2023-03-02T09:18:32.358Z,18.73
2023-03-02T09:20:59.321Z,20.30
2023-03-02T09:23:27.642Z,18.33
2023-03-02T09:25:54.834Z,19.45
2023-03-02T09:28:21.886Z,18.75
2023-03-02T09:30:54.449Z,18.85
2023-03-02T09:33:21.672Z,17.42
2023-03-02T09:35:48.940Z,18.25
2023-03-02T09:38:18.102Z,17.23
2023-03-02T09:41:11.377Z,18.27
2023-03-02T09:44:00.272Z,17.33
2023-03-02T09:46:36.347Z,17.48
2023-03-02T09:49:06.322Z,18.08
2023-03-02T09:51:47.321Z,16.92
2023-03-02T09:54:24.274Z,17.08
2023-03-02T09:56:55.037Z,16.73
2023-03-02T09:59:21.941Z,17.65
2023-03-02T10:01:54.871Z,15.73
2023-03-02T10:04:26.076Z,15.75
2023-03-02T10:07:22.473Z,15.50
2023-03-02T10:09:49.461Z,14.40
2023-03-02T10:12:48.923Z,15.20
2023-03-02T10:15:44.214Z,15.27
2023-03-02T10:18:28.317Z,14.75
2023-03-02T10:21:29.494Z,14.07
2023-03-02T10:24:10.891Z,15.13
2023-03-02T10:26:40.744Z,15.13
2023-03-02T10:29:10.714Z,15.23
2023-03-02T10:31:40.472Z,14.27
2023-03-02T10:34:11.488Z,14.95
2023-03-02T10:36:41.064Z,14.18
2023-03-02T10:39:13.949Z,13.68
2023-03-02T10:41:45.892Z,13.00
2023-03-02T10:44:15.570Z,13.45
2023-03-02T10:46:45.435Z,12.98
2023-03-02T10:49:42.646Z,12.35
2023-03-02T10:52:21.458Z,12.48
2023-03-02T10:54:48.536Z,14.02
2023-03-02T10:57:50.315Z,13.98
2023-03-02T11:00:22.935Z,14.48
2023-03-02T11:02:51.397Z,13.95
2023-03-02T11:05:24.119Z,14.32
2023-03-02T11:07:59.661Z,13.65
2023-03-02T11:10:31.992Z,12.35
2023-03-02T11:15:49.917Z,12.05
2023-03-02T11:18:23.132Z,12.23
2023-03-02T11:20:54.909Z,11.88
2023-03-02T11:23:41.184Z,9.70
2023-03-02T11:26:28.651Z,11.10
2023-03-02T11:29:02.617Z,10.63
2023-03-02T11:31:50.616Z,10.48
2023-03-02T11:34:54.955Z,11.43
2023-03-02T11:37:45.140Z,11.25
2023-03-02T11:40:33.563Z,11.20
2023-03-02T11:43:04.868Z,10.07
2023-03-02T11:45:37.274Z,9.82
2023-03-02T11:48:11.912Z,9.73
2023-03-02T11:50:50.683Z,9.07
2023-03-02T11:53:20.864Z,11.02
2023-03-02T11:55:49.681Z,9.20
2023-03-02T11:58:26.823Z,9.45
2023-03-02T12:00:55.697Z,8.68
2023-03-02T12:03:36.879Z,9.43
2023-03-02T12:06:12.747Z,10.32
2023-03-02T12:08:45.047Z,10.35
2023-03-02T12:13:45.832Z,9.93
2023-03-02T12:16:34.086Z,7.57
2023-03-02T12:19:12.895Z,8.52
2023-03-02T12:21:42.903Z,8.93
2023-03-02T12:24:25.736Z,8.60
2023-03-02T12:27:06.078Z,7.57
2023-03-02T12:29:45.653Z,7.50
2023-03-02T12:32:28.519Z,8.60
2023-03-02T12:35:00.196Z,8.80
2023-03-02T12:37:37.606Z,8.68
2023-03-02T12:40:35.390Z,8.90
2023-03-02T12:43:31.872Z,8.23
2023-03-02T12:46:33.152Z,8.52
2023-03-02T12:49:14.333Z,7.85
2023-03-02T12:51:51.852Z,8.38
2023-03-02T12:54:21.419Z,9.55
2023-03-02T12:56:48.954Z,8.00
2023-03-02T12:59:26.133Z,8.32
2023-03-02T13:02:17.299Z,7.95
2023-03-02T13:04:44.316Z,7.80
2023-03-02T13:07:17.426Z,8.55
2023-03-02T13:09:55.625Z,8.25
2023-03-02T13:12:24.368Z,7.47
2023-03-02T13:14:54.837Z,8.20
2023-03-02T13:17:25.347Z,7.82
2023-03-02T13:19:52.827Z,8.32
2023-03-02T13:22:22.462Z,8.52
2023-03-02T13:25:03.412Z,7.68
2023-03-02T13:27:31.234Z,7.93
2023-03-02T13:30:21.793Z,7.20
2023-03-02T13:32:49.505Z,8.38
2023-03-02T13:35:26.729Z,8.73
2023-03-02T13:38:06.433Z,8.02
2023-03-02T13:40:42.729Z,7.68
2023-03-02T13:43:22.902Z,7.53
2023-03-02T13:46:16.280Z,8.20
2023-03-02T13:49:07.571Z,7.63
2023-03-02T13:51:46.202Z,7.60
2023-03-02T13:54:28.088Z,7.30
2023-03-02T13:56:58.459Z,7.47
2023-03-02T13:59:25.691Z,7.30
2023-03-02T14:01:52.749Z,7.22
2023-03-02T14:04:23.271Z,7.60
2023-03-02T14:06:52.283Z,7.50
2023-03-02T14:09:19.574Z,7.60
2023-03-02T14:11:52.647Z,6.95
2023-03-02T14:14:22.539Z,7.93
2023-03-02T14:16:49.917Z,7.32
2023-03-02T14:19:18.520Z,8.27
2023-03-02T14:21:46.606Z,8.15
2023-03-02T14:24:13.744Z,8.90
2023-03-02T14:26:44.060Z,8.32
2023-03-02T14:29:26.650Z,7.25
2023-03-02T14:32:00.154Z,6.60
2023-03-02T14:34:27.221Z,6.45
2023-03-02T14:36:56.740Z,6.75
2023-03-02T14:39:35.625Z,6.55
2023-03-02T14:42:03.963Z,6.60
2023-03-02T14:44:31.421Z,6.15
2023-03-02T14:46:58.392Z,6.53
2023-03-02T14:49:25.582Z,6.20
2023-03-02T14:52:00.699Z,7.43
2023-03-02T14:54:30.902Z,7.80
2023-03-02T14:56:57.798Z,7.80
2023-03-02T14:59:24.709Z,7.50
2023-03-02T15:01:51.683Z,8.27
2023-03-02T15:04:18.625Z,7.72
2023-03-02T15:06:46.262Z,7.30
2023-03-02T15:09:13.263Z,7.25
2023-03-02T15:11:40.151Z,8.00
2023-03-02T15:14:07.004Z,7.72
2023-03-02T15:16:33.972Z,6.68
2023-03-02T15:19:00.947Z,7.32
2023-03-02T15:21:27.798Z,7.30
2023-03-02T15:23:55.327Z,6.78
2023-03-02T15:26:22.240Z,7.07
2023-03-02T15:28:52.470Z,6.80
2023-03-02T15:31:20.591Z,6.68
2023-03-02T15:33:47.524Z,6.72
2023-03-02T15:36:14.617Z,6.90
2023-03-02T15:38:41.561Z,6.78
2023-03-02T15:41:13.226Z,6.93
2023-03-02T15:43:40.259Z,6.65
2023-03-02T15:46:09.367Z,7.15
2023-03-02T15:48:36.935Z,6.80
2023-03-02T15:51:06.422Z,6.93
2023-03-02T15:53:37.742Z,6.82
2023-03-02T15:56:10.295Z,7.22
2023-03-02T15:58:37.201Z,7.05
2023-03-02T16:01:08.830Z,6.88
2023-03-02T16:03:35.908Z,7.38
2023-03-02T16:06:03.357Z,6.63
2023-03-02T16:08:30.345Z,6.90
2023-03-02T16:11:03.229Z,7.30
2023-03-02T16:13:30.614Z,7.65
2023-03-02T16:16:00.131Z,8.27
2023-03-02T16:18:27.019Z,10.88
2023-03-02T16:20:53.933Z,10.93
2023-03-02T16:23:20.968Z,11.00
2023-03-02T16:25:49.841Z,11.05
2023-03-02T16:28:18.368Z,10.90
2023-03-02T16:30:45.692Z,11.05
2023-03-02T16:33:17.042Z,11.57
2023-03-02T16:35:44.580Z,12.15
2023-03-02T16:38:11.705Z,12.40
2023-03-02T16:40:40.095Z,13.25
2023-03-02T16:43:08.984Z,12.63
2023-03-02T16:45:36.184Z,13.27
2023-03-02T16:48:04.660Z,13.18
2023-03-02T16:50:32.502Z,13.93
2023-03-02T16:52:59.925Z,13.70
2023-03-02T16:55:27.229Z,14.45
2023-03-02T16:57:54.257Z,13.90
2023-03-02T17:00:22.761Z,14.25
2023-03-02T17:02:50.856Z,14.65
2023-03-02T17:05:19.634Z,15.45
2023-03-02T17:07:47.316Z,15.00
2023-03-02T17:10:20.504Z,15.32
2023-03-02T17:12:47.766Z,15.07
2023-03-02T17:15:14.985Z,14.73
2023-03-02T17:17:42.175Z,16.20
2023-03-02T17:20:10.599Z,15.13
2023-03-02T17:22:37.744Z,15.38
2023-03-02T17:25:05.553Z,16.40
2023-03-02T17:27:32.543Z,16.15
2023-03-02T17:29:59.442Z,15.77
2023-03-02T17:32:26.564Z,15.27
2023-03-02T17:34:53.790Z,16.15
2023-03-02T17:37:20.739Z,15.48
2023-03-02T17:39:50.748Z,15.10
2023-03-02T17:42:18.098Z,14.90
2023-03-02T17:44:45.238Z,15.32
2023-03-02T17:47:15.022Z,15.15
2023-03-02T17:49:45.831Z,17.02
2023-03-02T17:52:17.724Z,16.52
2023-03-02T17:54:46.134Z,16.75
2023-03-02T17:57:13.441Z,16.08
2023-03-02T17:59:40.488Z,16.63
2023-03-02T18:02:07.951Z,16.92
2023-03-02T18:04:34.858Z,15.90
2023-03-02T18:07:01.851Z,16.13
2023-03-02T18:09:28.741Z,16.73
2023-03-02T18:11:55.535Z,16.38
2023-03-02T18:14:22.594Z,16.50
2023-03-02T18:16:49.484Z,15.80
2023-03-02T18:19:16.418Z,16.13
2023-03-02T18:21:43.342Z,16.88
2023-03-02T18:24:10.282Z,15.38
2023-03-02T18:26:37.395Z,15.68
2023-03-02T18:29:05.143Z,17.02
2023-03-02T18:31:34.175Z,16.33
2023-03-02T18:34:01.897Z,16.25
2023-03-02T18:36:29.264Z,15.40
2023-03-02T18:38:56.339Z,15.52
2023-03-02T18:41:24.565Z,16.08
2023-03-02T18:43:51.776Z,15.27
2023-03-02T18:46:20.604Z,14.82
2023-03-02T18:48:49.608Z,14.43
2023-03-02T18:51:18.083Z,14.20
2023-03-02T18:53:45.756Z,13.13
2023-03-02T18:56:12.808Z,14.00
2023-03-02T18:58:40.071Z,13.32
2023-03-02T19:01:07.933Z,12.88
2023-03-02T19:03:37.054Z,13.20
2023-03-02T19:06:05.685Z,12.05
2023-03-02T19:08:33.446Z,12.00
2023-03-02T19:11:00.269Z,12.10
2023-03-02T19:13:27.279Z,11.57
2023-03-02T19:15:54.884Z,11.60
2023-03-02T19:18:24.618Z,11.60
2023-03-02T19:20:54.200Z,11.25
2023-03-02T19:23:21.516Z,10.95
2023-03-02T19:25:48.749Z,11.27
2023-03-02T19:28:15.873Z,11.07
2023-03-02T19:30:43.156Z,11.38
2023-03-02T19:33:10.080Z,10.45
2023-03-02T19:35:37.949Z,11.38
2023-03-02T19:38:07.028Z,11.20
2023-03-02T19:40:34.585Z,11.20
2023-03-02T19:43:01.882Z,10.88
2023-03-02T19:45:32.297Z,11.10
2023-03-02T19:48:00.270Z,10.73
2023-03-02T19:50:27.598Z,11.25
2023-03-02T19:52:55.148Z,11.85
2023-03-02T19:55:24.283Z,11.60
2023-03-02T19:57:56.622Z,11.98
2023-03-02T20:02:50.774Z,11.63
2023-03-02T20:05:18.114Z,11.55
2023-03-02T20:07:45.148Z,11.77
2023-03-02T20:10:22.606Z,11.40
2023-03-02T20:12:49.554Z,12.00
2023-03-02T20:15:16.968Z,12.70
2023-03-02T20:17:43.948Z,12.18
2023-03-02T20:20:12.001Z,12.57
2023-03-02T20:22:38.857Z,13.55
2023-03-02T20:25:06.444Z,12.90
2023-03-02T20:27:33.333Z,13.30
2023-03-02T20:30:00.193Z,14.18
2023-03-02T20:32:27.167Z,13.77
2023-03-02T20:34:54.146Z,13.40
2023-03-02T20:37:22.635Z,13.95
2023-03-02T20:39:49.613Z,14.52
2023-03-02T20:42:16.516Z,12.57
2023-03-02T20:44:43.466Z,13.40
2023-03-02T20:47:14.462Z,14.00
2023-03-02T20:49:42.132Z,14.25
2023-03-02T20:52:09.833Z,14.30
2023-03-02T20:54:39.929Z,14.93
2023-03-02T20:57:08.645Z,15.10
2023-03-02T20:59:37.666Z,14.68
2023-03-02T21:02:05.478Z,15.07
2023-03-02T21:04:33.263Z,14.77
2023-03-02T21:07:00.476Z,13.88
2023-03-02T21:09:27.647Z,15.68
2023-03-02T21:11:54.876Z,16.15
2023-03-02T21:14:22.029Z,16.45
2023-03-02T21:16:48.933Z,16.15
2023-03-02T21:19:18.017Z,16.90
2023-03-02T21:21:45.550Z,16.30
2023-03-02T21:24:18.313Z,16.77
2023-03-02T21:26:46.969Z,15.43
2023-03-02T21:29:14.691Z,17.35
2023-03-02T21:31:43.788Z,16.08
2023-03-02T21:34:15.146Z,18.13
2023-03-02T21:36:43.080Z,16.88
2023-03-02T21:39:10.185Z,17.80
2023-03-02T21:41:37.104Z,17.42
2023-03-02T21:44:05.793Z,19.25
2023-03-02T21:46:34.990Z,16.23
2023-03-02T21:49:02.195Z,17.60
2023-03-02T21:51:29.071Z,18.52
2023-03-02T21:53:55.939Z,18.30
2023-03-02T21:56:26.014Z,18.00
2023-03-02T21:58:55.438Z,16.67
2023-03-02T22:01:23.529Z,19.25
2023-03-02T22:03:50.471Z,18.98
2023-03-02T22:06:29.420Z,19.55
2023-03-02T22:08:57.392Z,17.40
2023-03-02T22:11:42.883Z,19.15
2023-03-02T22:14:16.131Z,20.33
2023-03-02T22:16:46.357Z,20.70
2023-03-02T22:19:31.204Z,22.27
2023-03-02T22:22:00.383Z,21.40
2023-03-02T22:24:30.016Z,19.55
2023-03-02T22:27:02.077Z,23.15
2023-03-02T22:29:30.539Z,23.27
2023-03-02T22:32:11.575Z,23.25
2023-03-02T22:34:40.378Z,23.20
2023-03-02T22:37:19.768Z,23.27
2023-03-02T22:39:47.568Z,24.73
2023-03-02T22:42:20.117Z,24.15
2023-03-02T22:44:59.167Z,24.77
2023-03-02T22:47:27.013Z,22.70
2023-03-02T22:49:58.323Z,26.65
2023-03-02T22:52:37.346Z,24.58
2023-03-02T22:55:34.196Z,22.90
2023-03-02T22:58:29.854Z,23.63
2023-03-02T23:01:00.984Z,23.40
2023-03-02T23:03:37.966Z,22.58
2023-03-02T23:06:29.153Z,22.80
2023-03-02T23:09:01.817Z,21.65
2023-03-02T23:11:31.627Z,23.30
2023-03-02T23:14:01.537Z,23.17
2023-03-02T23:16:35.830Z,23.20
2023-03-02T23:19:04.100Z,22.33
2023-03-02T23:21:40.241Z,22.25
2023-03-02T23:24:08.015Z,22.92
2023-03-02T23:26:35.220Z,22.60
2023-03-02T23:29:02.343Z,23.52
2023-03-02T23:31:29.511Z,22.85
2023-03-02T23:33:56.393Z,21.45
2023-03-02T23:36:23.395Z,22.02
2023-03-02T23:38:50.984Z,20.67
2023-03-02T23:41:18.396Z,21.20
2023-03-02T23:43:45.441Z,20.25
2023-03-02T23:46:14.157Z,21.05
2023-03-02T23:48:42.713Z,20.15
2023-03-02T23:51:10.190Z,20.17
2023-03-02T23:53:37.094Z,19.65
2023-03-02T23:56:04.138Z,20.80
2023-03-02T23:58:31.012Z,20.00
